• Join FlightAware (Why Join?)
  • Login
  • US Flag GB Flag 
14:36 EST


 

Airport Tracker/Info


-or-


 

Live Flight TrackerFlight Track Log ✈ AAY846 ✈ 27-Dec-2013 ✈ KPIE - KPIA

Flight Track Log - Related Links

Times and Time Zones

All times are in EST time to prevent confusion due to time zone crossing. See the AAY846 flight status page for this flight to view local times or setup timezone preferences in your user account.

Time Position Orientation Groundspeed Altitude Reporting Facility
EST Latitude Longitude Course Direction KTS MPH feet Rate Location/Type
07:58 27.9333 -82.7000 41° Northeast 168 193 1,000  Level Tampa TRACON
07:59 27.9500 -82.6833 41° Northeast 165 190 2,400 1,980 Climbing Tampa TRACON
08:01 28.0581 -82.6975 353° North 223 257 5,800 2,160 Climbing Jacksonville Center
08:02 28.1414 -82.7208 346° North 255 293 8,600 2,460 Climbing Jacksonville Center
08:03 28.2250 -82.7417 348° North 282 325 10,800 2,040 Climbing Jacksonville Center
08:04 28.3253 -82.7675 347° North 324 373 12,700 2,040 Climbing Jacksonville Center
08:05 28.4317 -82.7911 349° North 366 421 14,900 2,220 Climbing Jacksonville Center
08:06 28.5444 -82.8194 348° North 393 452 17,200 1,980 Climbing Jacksonville Center
08:07 28.6592 -82.8569 344° North 407 468 18,900 1,800 Climbing Jacksonville Center
08:08 28.7592 -82.8972 341° North 417 480 20,800 1,740 Climbing Jacksonville Center
08:09 28.8719 -82.9400 342° North 423 487 22,400 1,440 Climbing Jacksonville Center
08:10 28.9931 -82.9875 341° North 436 502 23,700 1,500 Climbing Jacksonville Center
08:11 29.1119 -83.0353 341° North 441 507 25,400 1,500 Climbing Jacksonville Center
08:12 29.2308 -83.0806 342° North 446 513 26,700 1,200 Climbing Jacksonville Center
08:13 29.3497 -83.1283 341° North 446 513 27,800 1,080 Climbing Jacksonville Center
08:14 29.4686 -83.1858 337° Northwest 452 520 28,900 1,140 Climbing Jacksonville Center
08:15 29.6000 -83.2508 337° Northwest 461 531 30,100 1,080 Climbing Jacksonville Center
08:16 29.7022 -83.3014 337° Northwest 454 522 31,100 900 Climbing Jacksonville Center
08:17 29.8189 -83.3594 337° Northwest 454 522 31,900 360 Climbing Jacksonville Center
08:18 29.9378 -83.4150 338° Northwest 454 522 31,900  Level Jacksonville Center
08:19 30.0586 -83.4733 337° Northwest 454 522 31,900  Level Jacksonville Center
08:20 30.1753 -83.5294 337° Northwest 454 522 31,900 60 Level Jacksonville Center
08:21 30.2875 -83.5853 337° Northwest 449 517 32,100 480 Climbing Jacksonville Center
08:22 30.4042 -83.6442 336° Northwest 449 517 32,900 780 Climbing Jacksonville Center
08:23 30.5167 -83.7003 337° Northwest 444 511 33,700 540 Climbing Jacksonville Center
08:24 30.6372 -83.7617 336° Northwest 434 499 34,000 120 Climbing Jacksonville Center
08:25 30.7497 -83.8161 337° Northwest 434 499 34,000  Level Jacksonville Center
08:26 30.8578 -83.8678 338° Northwest 434 499 34,000  Level Jacksonville Center
08:27 30.9700 -83.9272 336° Northwest 439 505 34,000  Level Jacksonville Center
08:29 31.2206 -84.0533 337° Northwest 438 504 34,000  Level Atlanta Center
08:30 31.3314 -84.1094 337° Northwest 433 498 34,000  Level Atlanta Center
08:31 31.4397 -84.1656 336° Northwest 433 498 34,000  Level Atlanta Center
08:32 31.5525 -84.2217 337° Northwest 433 498 34,000  Level Atlanta Center
08:33 31.6628 -84.2756 337° Northwest 433 498 34,000  Level Atlanta Center
08:34 31.7733 -84.3344 336° Northwest 433 498 34,000  Level Atlanta Center
08:35 31.8964 -84.3961 337° Northwest 433 498 34,000  Level Atlanta Center
08:36 32.0089 -84.4553 336° Northwest 438 504 34,000  Level Atlanta Center
08:37 32.1214 -84.5147 336° Northwest 438 504 34,000  Level Atlanta Center
08:38 32.2297 -84.5692 337° Northwest 433 498 34,000  Level Atlanta Center
08:39 32.3422 -84.6264 337° Northwest 433 498 34,000  Level Atlanta Center
08:40 32.4525 -84.6861 335° Northwest 438 504 34,000  Level Atlanta Center
08:41 32.5669 -84.7436 337° Northwest 438 504 34,000  Level Atlanta Center
08:42 32.6772 -84.8014 336° Northwest 438 504 34,000  Level Atlanta Center
08:43 32.7750 -84.8467 339° North 430 495 34,000  Level Atlanta Center
08:44 32.9039 -84.9222 334° Northwest 441 507 34,000  Level Atlanta Center
08:45 33.0142 -84.9803 336° Northwest 441 507 34,000  Level Atlanta Center
08:46 33.1264 -85.0383 337° Northwest 435 501 34,000  Level Atlanta Center
08:47 33.2344 -85.0944 337° Northwest 435 501 34,000  Level Atlanta Center
08:48 33.3467 -85.1553 336° Northwest 435 501 34,000  Level Atlanta Center
08:49 33.4567 -85.2142 336° Northwest 435 501 34,000  Level Atlanta Center
08:50 33.5669 -85.2728 336° Northwest 435 501 34,000  Level Atlanta Center
08:51 33.6664 -85.3242 337° Northwest 435 501 34,000  Level Atlanta Center
08:52 33.7764 -85.3808 337° Northwest 435 501 34,000  Level Atlanta Center
08:53 33.8886 -85.4403 336° Northwest 435 501 34,000  Level Atlanta Center
08:54 33.9986 -85.4997 336° Northwest 435 501 34,000  Level Atlanta Center
08:55 34.1106 -85.5592 336° Northwest 435 501 34,000  Level Atlanta Center
08:56 34.2328 -85.6242 336° Northwest 435 501 34,000  Level Atlanta Center
08:57 34.3406 -85.6842 335° Northwest 433 498 34,000  Level Atlanta Center
08:58 34.4358 -85.7389 335° Northwest 425 489 34,000  Level Atlanta Center
08:59 34.5456 -85.7964 337° Northwest 419 482 34,000  Level Atlanta Center
09:00 34.6553 -85.8519 337° Northwest 419 482 34,000  Level Atlanta Center
09:01 34.7631 -85.9122 335° Northwest 419 482 34,000  Level Atlanta Center
09:02 34.8831 -85.9758 337° Northwest 425 489 34,000  Level Atlanta Center
09:03 34.9761 -86.0311 334° Northwest 425 489 34,000  Level Atlanta Center
09:05 35.1883 -86.1486 336° Northwest 419 482 34,000  Level Memphis Center
09:06 35.3025 -86.2139 335° Northwest 420 483 34,000  Level Memphis Center
09:07 35.4097 -86.2739 335° Northwest 419 482 34,000  Level Memphis Center
09:08 35.5328 -86.3428 336° Northwest 415 478 34,000  Level Memphis Center
09:09 35.6378 -86.4008 336° Northwest 411 473 34,000  Level Memphis Center
09:10 35.7425 -86.4608 335° Northwest 411 473 34,000  Level Memphis Center
09:11 35.8483 -86.5194 336° Northwest 412 474 34,000  Level Memphis Center
09:12 35.9497 -86.5792 335° Northwest 404 465 34,000  Level Memphis Center
09:13 36.0544 -86.6378 336° Northwest 407 468 34,000  Level Memphis Center
09:14 36.1572 -86.6961 335° Northwest 405 466 34,000  Level Memphis Center
09:15 36.2567 -86.7547 335° Northwest 397 457 34,000  Level Memphis Center
09:16 36.3672 -86.8206 334° Northwest 394 453 34,000  Level Memphis Center
09:17 36.4689 -86.8794 335° Northwest 398 458 34,000  Level Memphis Center
09:18 36.5692 -86.9381 335° Northwest 397 457 34,000  Level Memphis Center
09:19 36.6675 -86.9972 334° Northwest 392 451 34,000  Level Memphis Center
09:20 36.7828 -87.0658 335° Northwest 390 449 34,000  Level Memphis Center
09:22 36.8817 -87.1258 334° Northwest 391 450 34,000  Level Memphis Center
09:23 36.9806 -87.1853 334° Northwest 391 450 34,000  Level Memphis Center
09:24 37.0800 -87.2436 335° Northwest 391 450 34,000  Level Memphis Center
09:25 37.1778 -87.3036 334° Northwest 389 448 34,000  Level Memphis Center
09:26 37.2756 -87.3633 334° Northwest 388 447 34,000  Level Memphis Center
09:27 37.3772 -87.4244 334° Northwest 396 456 34,000  Level Memphis Center
09:28 37.4772 -87.4853 334° Northwest 396 456 34,000  Level Memphis Center
09:29 37.5939 -87.5561 334° Northwest 394 453 34,000  Level Memphis Center
09:30 37.6936 -87.6164 334° Northwest 393 452 34,000  Level Memphis Center
09:31 37.7928 -87.6792 333° Northwest 394 453 34,000 -60 Level Memphis Center
09:32 37.8942 -87.7411 334° Northwest 398 458 33,900 -420 Descending Memphis Center
09:33 37.9958 -87.8028 334° Northwest 401 461 33,200 -840 Descending Memphis Center
09:34 38.1286 -87.8806 335° Northwest 398 458 32,000 -540 Descending Indianapolis Center
09:35 38.2328 -87.9425 335° Northwest 406 467 32,000 -420 Level Indianapolis Center
09:36 38.3578 -88.0153 335° Northwest 407 468 31,200 -780 Descending Indianapolis Center
09:37 38.4625 -88.0781 335° Northwest 409 471 30,400 -600 Descending Indianapolis Center
09:38 38.5686 -88.1417 335° Northwest 416 479 30,000 -240 Descending Indianapolis Center
09:39 38.6728 -88.2036 335° Northwest 412 474 30,000 -360 Level Kansas City Center
09:40 38.7778 -88.2667 335° Northwest 413 475 29,300 -900 Descending Kansas City Center
09:41 38.8803 -88.3306 334° Northwest 411 473 28,200 -1,080 Descending Kansas City Center
09:42 38.9811 -88.3925 334° Northwest 404 465 27,100 -1,200 Descending Kansas City Center
09:44 39.0808 -88.4528 335° Northwest 398 458 25,800 -1,380 Descending Kansas City Center
09:45 39.1811 -88.5136 335° Northwest 395 455 24,300 -1,380 Descending Kansas City Center
09:46 39.2783 -88.5711 335° Northwest 389 448 23,000 -1,260 Descending Kansas City Center
09:47 39.3797 -88.6339 334° Northwest 367 422 21,800 -1,080 Descending Kansas City Center
09:48 39.4819 -88.6972 334° Northwest 373 429 20,800 -1,020 Descending Kansas City Center
09:49 39.5733 -88.7536 335° Northwest 367 422 19,700 -1,020 Descending Kansas City Center
09:50 39.6633 -88.8097 334° Northwest 361 415 18,800 -840 Descending Kansas City Center
09:51 39.7511 -88.8658 334° Northwest 356 410 18,000 -600 Descending Kansas City Center
09:52 39.8294 -88.9369 325° Northwest 345 397 17,600 -600 Descending Kansas City Center
09:53 39.9072 -89.0050 326° Northwest 339 390 16,800 -900 Descending Kansas City Center
09:54 39.9839 -89.0753 325° Northwest 337 388 15,800 -1,260 Descending Kansas City Center
09:55 40.0761 -89.1592 325° Northwest 337 388 14,300 -1,500 Descending Kansas City Center
09:56 40.1522 -89.2272 326° Northwest 333 383 12,800 -1,560 Descending Kansas City Center
09:57 40.2253 -89.2886 327° Northwest 320 368 11,100 -1,260 Descending Kansas City Center
09:58 40.2928 -89.3406 330° Northwest 293 337 10,200 -1,440 Descending Kansas City Center
09:59 40.3503 -89.3861 329° Northwest 254 292 8,200 -2,460 Descending Kansas City Center
10:00 40.3853 -89.4144 328° Northwest 247 284 6,500 -2,520 Descending Chicago Center
10:01 40.4456 -89.4636 328° Northwest 253 291 4,400 -1,560 Descending Chicago Center
10:02 40.5036 -89.5094 329° Northwest 249 287 3,300 -840 Descending Chicago Center
10:03 40.5572 -89.5522 329° Northwest 238 274 2,700 -540 Descending Chicago Center
10:04 40.6008 -89.5889 327° Northwest 210 242 2,300 -540 Descending Chicago Center
10:05 40.6297 -89.6353 309° West 161 185 1,600 -720 Descending Chicago Center
10:06 40.6517 -89.6742 307° West 143 165 900 -540 Descending Chicago Center
10:07 40.6725 -89.7111 307° West 140 161 600 -300 Descending Chicago Center